createdAt,value
2023-02-07T00:01:21.082Z,86.24
2023-02-07T00:06:35.558Z,86.17
2023-02-07T00:11:41.012Z,86.14
2023-02-07T00:16:44.024Z,86.04
2023-02-07T00:21:47.278Z,85.98
2023-02-07T00:26:52.372Z,85.89
2023-02-07T00:31:55.258Z,85.81
2023-02-07T00:36:58.297Z,85.72
2023-02-07T00:42:01.163Z,85.65
2023-02-07T00:47:04.129Z,85.57
2023-02-07T00:52:07.020Z,85.54
2023-02-07T00:57:09.959Z,85.42
2023-02-07T01:02:13.008Z,85.38
2023-02-07T01:07:16.220Z,85.42
2023-02-07T01:12:19.120Z,85.47
2023-02-07T01:17:22.096Z,85.46
2023-02-07T01:22:27.252Z,85.51
2023-02-07T01:27:30.160Z,85.50
2023-02-07T01:32:34.052Z,85.51
2023-02-07T01:37:37.109Z,85.49
2023-02-07T01:42:40.045Z,85.51
2023-02-07T01:47:42.951Z,85.68
2023-02-07T01:52:46.585Z,85.75
2023-02-07T01:57:49.953Z,85.83
2023-02-07T02:02:53.141Z,85.94
2023-02-07T02:07:56.785Z,85.89
2023-02-07T02:13:31.873Z,85.78
2023-02-07T02:18:47.672Z,85.68
2023-02-07T02:24:35.573Z,85.64
2023-02-07T02:29:44.533Z,85.54
2023-02-07T02:35:09.577Z,85.50
2023-02-07T02:40:33.492Z,85.46
2023-02-07T02:45:56.252Z,85.35
2023-02-07T02:50:59.373Z,85.31
2023-02-07T02:56:32.520Z,85.29
2023-02-07T03:02:13.066Z,85.32
2023-02-07T03:07:25.004Z,85.31
2023-02-07T03:12:53.708Z,85.39
2023-02-07T03:18:19.258Z,85.48
2023-02-07T03:23:23.474Z,85.49
2023-02-07T03:28:29.202Z,85.40
2023-02-07T03:33:33.006Z,85.38
2023-02-07T03:38:37.764Z,85.39
2023-02-07T03:43:42.943Z,85.35
2023-02-07T03:48:45.981Z,85.28
2023-02-07T03:53:48.967Z,85.22
2023-02-07T03:58:51.895Z,85.28
2023-02-07T04:03:54.846Z,85.26
2023-02-07T04:08:57.848Z,85.22
2023-02-07T04:14:00.744Z,85.36
2023-02-07T04:19:03.696Z,85.36
2023-02-07T04:24:06.735Z,85.36
2023-02-07T04:29:10.005Z,85.37
2023-02-07T04:34:13.278Z,85.45
2023-02-07T04:39:16.670Z,85.54
2023-02-07T04:44:19.717Z,85.61
2023-02-07T04:49:22.809Z,85.67
2023-02-07T04:54:25.713Z,85.63
2023-02-07T04:59:28.685Z,85.72
2023-02-07T05:04:31.608Z,85.79
2023-02-07T05:09:34.531Z,85.75
2023-02-07T05:14:37.406Z,85.75
2023-02-07T05:19:40.337Z,85.79
2023-02-07T05:24:44.027Z,85.75
2023-02-07T05:29:46.948Z,85.67
2023-02-07T05:34:49.841Z,85.66
2023-02-07T05:39:52.866Z,85.68
2023-02-07T05:44:55.918Z,85.74
2023-02-07T05:49:58.890Z,85.64
2023-02-07T05:55:01.834Z,85.67
2023-02-07T06:00:06.403Z,85.75
2023-02-07T06:05:14.553Z,85.76
2023-02-07T06:10:17.616Z,85.71
2023-02-07T06:15:20.575Z,85.68
2023-02-07T06:20:23.527Z,85.64
2023-02-07T06:25:26.417Z,85.64
2023-02-07T06:30:29.551Z,85.68
2023-02-07T06:35:32.521Z,85.61
2023-02-07T06:40:35.407Z,85.61
2023-02-07T06:45:38.561Z,85.61
2023-02-07T06:50:41.789Z,85.58
2023-02-07T06:55:44.760Z,85.56
2023-02-07T07:00:47.815Z,85.53
2023-02-07T07:05:50.937Z,85.46
2023-02-07T07:10:56.005Z,85.39
2023-02-07T07:16:03.696Z,85.26
2023-02-07T07:21:08.064Z,85.07
2023-02-07T07:26:11.172Z,84.95
2023-02-07T07:31:14.467Z,84.75
2023-02-07T07:36:17.494Z,84.56
2023-02-07T07:41:20.511Z,84.29
2023-02-07T07:46:23.614Z,84.04
2023-02-07T07:51:26.527Z,83.72
2023-02-07T07:56:29.644Z,83.49
2023-02-07T08:01:32.598Z,83.17
2023-02-07T08:06:35.732Z,82.98
2023-02-07T08:11:38.804Z,82.88
2023-02-07T08:16:41.751Z,82.86
2023-02-07T08:21:44.946Z,82.29
2023-02-07T08:26:48.330Z,82.07
2023-02-07T08:31:51.326Z,81.61
2023-02-07T08:36:54.446Z,81.50
2023-02-07T08:41:57.391Z,81.04
2023-02-07T08:47:00.508Z,81.03
2023-02-07T08:52:03.559Z,80.86
2023-02-07T08:57:06.626Z,81.07
2023-02-07T09:02:12.626Z,80.54
2023-02-07T09:07:16.042Z,79.98
2023-02-07T09:12:19.009Z,78.89
2023-02-07T09:17:21.883Z,79.31
2023-02-07T09:22:24.884Z,79.10
2023-02-07T09:27:27.854Z,78.82
2023-02-07T09:32:30.816Z,78.50
2023-02-07T09:37:46.779Z,78.28
2023-02-07T09:43:02.883Z,77.86
2023-02-07T09:48:23.868Z,78.04
2023-02-07T09:53:43.252Z,77.79
2023-02-07T09:59:08.065Z,77.47
2023-02-07T10:04:23.199Z,77.37
2023-02-07T10:09:36.613Z,77.48
2023-02-07T10:15:21.314Z,77.69
2023-02-07T10:21:01.128Z,77.60
2023-02-07T10:26:32.946Z,77.08
2023-02-07T10:31:40.775Z,77.18
2023-02-07T10:36:49.626Z,77.10
2023-02-07T10:41:56.203Z,76.61
2023-02-07T10:47:07.702Z,77.03
2023-02-07T10:52:34.252Z,76.78
2023-02-07T10:57:37.782Z,76.88
2023-02-07T11:02:49.975Z,77.07
2023-02-07T11:08:15.195Z,77.11
2023-02-07T11:13:27.994Z,76.08
2023-02-07T11:18:44.989Z,76.09
2023-02-07T11:23:50.975Z,76.46
2023-02-07T11:29:14.840Z,76.88
2023-02-07T11:34:46.133Z,76.26
2023-02-07T11:39:52.882Z,75.71
2023-02-07T11:44:56.020Z,75.99
2023-02-07T11:50:04.857Z,76.31
2023-02-07T11:55:25.321Z,76.17
2023-02-07T12:00:30.427Z,76.54
2023-02-07T12:05:40.433Z,76.89
2023-02-07T12:10:50.586Z,76.60
2023-02-07T12:16:00.548Z,76.22
2023-02-07T12:21:18.470Z,76.32
2023-02-07T12:26:31.310Z,76.26
2023-02-07T12:32:05.504Z,76.42
2023-02-07T12:37:46.756Z,76.41
2023-02-07T12:43:00.483Z,76.36
2023-02-07T12:48:55.189Z,76.50
2023-02-07T12:54:08.490Z,76.55
2023-02-07T12:59:23.776Z,76.56
2023-02-07T13:05:15.796Z,76.61
2023-02-07T13:10:42.658Z,76.73
2023-02-07T13:16:21.201Z,76.93
2023-02-07T13:21:54.308Z,76.99
2023-02-07T13:27:13.432Z,76.99
2023-02-07T13:32:24.580Z,77.17
2023-02-07T13:37:44.478Z,77.31
2023-02-07T13:43:44.453Z,77.37
2023-02-07T13:48:57.772Z,77.03
2023-02-07T13:54:22.489Z,77.42
2023-02-07T13:59:41.320Z,77.40
2023-02-07T14:05:06.744Z,77.57
2023-02-07T14:10:48.089Z,77.19
2023-02-07T14:16:42.913Z,77.21
2023-02-07T14:21:46.769Z,77.59
2023-02-07T14:26:57.813Z,78.04
2023-02-07T14:32:26.786Z,78.18
2023-02-07T14:37:46.569Z,78.24
2023-02-07T14:43:18.999Z,78.28
2023-02-07T14:48:41.019Z,78.54
2023-02-07T14:53:50.484Z,78.74
2023-02-07T14:58:59.018Z,78.72
2023-02-07T15:04:08.046Z,78.57
2023-02-07T15:09:25.454Z,78.64
2023-02-07T15:14:34.132Z,78.46
2023-02-07T15:19:42.118Z,78.57
2023-02-07T15:24:51.396Z,78.63
2023-02-07T15:29:59.697Z,78.77
2023-02-07T15:35:17.091Z,78.74
2023-02-07T15:40:26.675Z,78.52
2023-02-07T15:45:33.495Z,78.75
2023-02-07T15:50:38.425Z,78.68
2023-02-07T15:55:44.971Z,78.82
2023-02-07T16:00:48.050Z,78.86
2023-02-07T16:06:15.665Z,78.79
2023-02-07T16:11:27.730Z,78.81
2023-02-07T16:16:47.133Z,78.99
2023-02-07T16:21:57.776Z,79.18
2023-02-07T16:27:01.149Z,79.29
2023-02-07T16:32:04.559Z,79.46
2023-02-07T16:37:07.965Z,79.63
2023-02-07T16:42:16.919Z,79.58
2023-02-07T16:47:20.118Z,79.64
2023-02-07T16:52:23.143Z,79.72
2023-02-07T16:57:26.126Z,79.70
2023-02-07T17:02:29.109Z,79.76
2023-02-07T17:07:32.068Z,79.97
2023-02-07T17:12:35.067Z,79.97
2023-02-07T17:17:38.289Z,79.93
2023-02-07T17:22:41.414Z,79.85
2023-02-07T17:27:44.512Z,79.88
2023-02-07T17:32:48.100Z,80.01
2023-02-07T17:37:53.824Z,80.07
2023-02-07T17:42:58.078Z,79.99
2023-02-07T17:48:01.685Z,80.04
2023-02-07T17:53:04.916Z,80.10
2023-02-07T17:58:07.952Z,80.18
2023-02-07T18:03:11.537Z,80.21
2023-02-07T18:08:15.204Z,80.31
2023-02-07T18:13:18.146Z,80.28
2023-02-07T18:18:21.073Z,80.36
2023-02-07T18:23:24.145Z,80.39
2023-02-07T18:28:27.373Z,80.57
2023-02-07T18:33:30.354Z,80.61
2023-02-07T18:38:33.379Z,80.61
2023-02-07T18:43:38.424Z,80.61
2023-02-07T18:48:46.258Z,80.61
2023-02-07T18:53:54.989Z,80.73
2023-02-07T18:59:11.635Z,80.84
2023-02-07T19:04:21.936Z,80.94
2023-02-07T19:09:35.689Z,81.17
2023-02-07T19:14:51.166Z,81.46
2023-02-07T19:20:17.809Z,81.48
2023-02-07T19:25:21.408Z,81.58
2023-02-07T19:30:24.899Z,81.58
2023-02-07T19:35:28.081Z,81.76
2023-02-07T19:40:31.371Z,81.72
2023-02-07T19:45:34.864Z,81.62
2023-02-07T19:50:41.174Z,81.63
2023-02-07T19:55:58.716Z,81.53
2023-02-07T20:01:05.474Z,81.64
2023-02-07T20:06:13.904Z,81.60
2023-02-07T20:11:21.159Z,81.50
2023-02-07T20:16:26.353Z,81.39
2023-02-07T20:21:34.140Z,81.33
2023-02-07T20:27:14.650Z,81.29
2023-02-07T20:32:21.319Z,81.14
2023-02-07T20:37:24.765Z,80.97
2023-02-07T20:42:34.338Z,80.94
2023-02-07T20:47:43.327Z,81.00
2023-02-07T20:52:46.524Z,81.04
2023-02-07T20:57:55.522Z,81.16
2023-02-07T21:03:11.072Z,81.25
2023-02-07T21:08:14.581Z,81.39
2023-02-07T21:13:37.073Z,81.37
2023-02-07T21:18:50.947Z,81.50
2023-02-07T21:23:57.770Z,81.68
2023-02-07T21:29:11.620Z,81.65
2023-02-07T21:34:21.181Z,81.73
2023-02-07T21:39:30.086Z,81.75
2023-02-07T21:44:40.467Z,81.87
2023-02-07T21:49:46.089Z,81.96
2023-02-07T21:54:52.173Z,81.86
2023-02-07T21:59:55.163Z,81.82
2023-02-07T22:04:58.260Z,81.96
2023-02-07T22:10:01.302Z,82.03
2023-02-07T22:15:05.014Z,82.08
2023-02-07T22:20:09.195Z,82.01
2023-02-07T22:25:14.937Z,82.08
2023-02-07T22:30:23.422Z,82.08
2023-02-07T22:35:50.103Z,82.09
2023-02-07T22:40:56.545Z,82.07
2023-02-07T22:46:43.564Z,82.07
2023-02-07T22:51:50.510Z,81.95
2023-02-07T22:57:16.988Z,81.84
2023-02-07T23:02:25.615Z,82.02
2023-02-07T23:07:56.206Z,82.04
2023-02-07T23:12:59.510Z,82.11
2023-02-07T23:18:04.468Z,82.06
2023-02-07T23:23:07.584Z,82.02
2023-02-07T23:28:12.255Z,81.83
2023-02-07T23:33:15.532Z,81.72
2023-02-07T23:38:18.625Z,81.83
2023-02-07T23:43:21.616Z,81.81
2023-02-07T23:48:24.948Z,81.75
2023-02-07T23:53:28.870Z,81.69
2023-02-07T23:58:33.049Z,81.44
